Time;durP1;ratioP1;P1;durP2;ratioP2;P2;SDS_P1;SDS_P2;PMS_P1;PMS_P2;Temp;Humidity;BMP_temperature;BMP_pressure;BME280_temperature;BME280_humidity;BME280_pressure;Samples;Min_cycle;Max_cycle;Signal;HPM_P1;HPM_P2
2022/05/19 00:02:19;;;;;;;3.72;2.58;;;15.20;92.60;;;;;;4978948;28;20179;-36
2022/05/19 00:04:46;;;;;;;4.95;2.90;;;14.90;93.80;;;;;;4986592;28;20064;-36
2022/05/19 00:07:13;;;;;;;2.88;2.42;;;15.00;94.10;;;;;;4982453;28;20097;-38
2022/05/19 00:09:39;;;;;;;2.88;2.53;;;15.00;94.30;;;;;;4984842;28;20038;-35
2022/05/19 00:12:09;;;;;;;3.70;2.33;;;15.10;94.10;;;;;;4984723;28;20042;-34
2022/05/19 00:14:35;;;;;;;5.72;3.05;;;15.20;94.40;;;;;;4988474;28;20031;-36
2022/05/19 00:17:01;;;;;;;4.10;3.00;;;15.30;93.70;;;;;;4997088;28;20045;-35
2022/05/19 00:19:27;;;;;;;5.35;2.90;;;15.20;94.60;;;;;;4981276;28;20503;-36
2022/05/19 00:21:53;;;;;;;3.90;2.65;;;15.20;94.10;;;;;;4962684;28;20045;-36
2022/05/19 00:24:20;;;;;;;3.92;2.63;;;15.20;94.40;;;;;;4982723;28;20069;-36
2022/05/19 00:26:45;;;;;;;5.13;2.97;;;15.20;93.90;;;;;;4985548;28;20030;-35
2022/05/19 00:29:11;;;;;;;3.15;2.75;;;15.00;95.70;;;;;;4985118;28;20042;-39
2022/05/19 00:31:37;;;;;;;3.78;2.60;;;15.00;95.40;;;;;;4964819;28;20043;-35
2022/05/19 00:34:03;;;;;;;3.22;2.80;;;15.00;95.10;;;;;;4982758;28;20031;-37
2022/05/19 00:36:29;;;;;;;5.35;2.67;;;15.00;95.80;;;;;;4986830;28;20400;-35
2022/05/19 00:38:55;;;;;;;4.43;2.90;;;14.90;96.40;;;;;;4992068;28;20070;-35
2022/05/19 00:41:22;;;;;;;6.47;2.95;;;14.90;95.90;;;;;;4983845;28;20397;-37
2022/05/19 00:44:04;;;;;;;4.25;2.90;;;14.90;96.10;;;;;;4988228;28;20037;-35
2022/05/19 00:46:51;;;;;;;3.15;2.70;;;15.00;95.90;;;;;;4987962;28;20091;-37
2022/05/19 00:49:25;;;;;;;3.47;2.73;;;15.10;95.50;;;;;;4985340;28;20031;-35
2022/05/19 00:52:01;;;;;;;4.03;2.67;;;15.10;95.70;;;;;;4995228;28;20035;-36
2022/05/19 00:54:32;;;;;;;3.67;3.00;;;15.00;96.50;;;;;;4987097;28;20049;-39
2022/05/19 00:57:05;;;;;;;4.78;3.38;;;14.80;97.50;;;;;;4987662;28;20487;-39
2022/05/19 00:59:40;;;;;;;5.68;3.85;;;14.60;98.20;;;;;;4973839;28;20037;-37
2022/05/19 01:02:09;;;;;;;3.40;2.67;;;14.50;99.00;;;;;;4974647;28;20776;-32
2022/05/19 01:04:45;;;;;;;4.90;3.28;;;14.40;99.30;;;;;;4971964;28;20020;-31
2022/05/19 01:07:17;;;;;;;3.50;3.20;;;14.50;99.20;;;;;;4954231;28;20023;-31
2022/05/19 01:09:43;;;;;;;3.70;2.60;;;14.50;99.00;;;;;;4951534;28;20054;-31
2022/05/19 01:12:10;;;;;;;3.25;2.72;;;14.50;98.90;;;;;;4951250;28;20042;-32
2022/05/19 01:14:36;;;;;;;3.63;2.72;;;14.30;99.50;;;;;;4976666;28;20034;-31
2022/05/19 01:17:06;;;;;;;3.38;2.50;;;14.30;98.40;;;;;;4969400;28;20037;-31
2022/05/19 01:19:36;;;;;;;3.50;3.00;;;14.20;98.20;;;;;;4973704;28;20058;-32
2022/05/19 01:22:43;;;;;;;4.45;2.65;;;14.00;98.10;;;;;;4965895;28;20041;-31
2022/05/19 01:25:51;;;;;;;3.27;2.77;;;13.90;97.70;;;;;;4930515;28;20055;-31
2022/05/19 01:28:17;;;;;;;5.80;2.50;;;14.00;99.90;;;;;;4969514;28;20092;-31
2022/05/19 01:30:43;;;;;;;4.60;2.72;;;14.00;99.70;;;;;;4972433;28;20113;-32
2022/05/19 01:33:08;;;;;;;3.17;2.88;;;14.00;99.60;;;;;;4977424;28;20038;-31
2022/05/19 01:35:34;;;;;;;3.58;3.10;;;14.00;99.90;;;;;;4982011;28;20030;-31
2022/05/19 01:38:02;;;;;;;3.65;3.10;;;14.00;99.90;;;;;;4986640;28;20026;-31
2022/05/19 01:40:57;;;;;;;3.60;3.08;;;13.90;99.90;;;;;;4981258;28;20034;-32
2022/05/19 01:43:30;;;;;;;3.45;3.03;;;13.90;99.80;;;;;;4981610;28;20046;-32
2022/05/19 01:46:13;;;;;;;6.20;3.15;;;13.80;99.90;;;;;;4982972;28;20049;-32
2022/05/19 01:48:38;;;;;;;5.20;3.38;;;13.70;99.90;;;;;;4982419;28;20487;-32
2022/05/19 01:51:21;;;;;;;4.18;3.42;;;13.70;99.90;;;;;;4972573;28;20053;-32
2022/05/19 01:54:01;;;;;;;3.90;3.42;;;13.60;99.90;;;;;;4971047;28;20548;-31
2022/05/19 01:56:39;;;;;;;6.22;3.28;;;13.50;99.90;;;;;;4971295;28;20116;-32
2022/05/19 01:59:20;;;;;;;3.65;3.28;;;13.50;99.90;;;;;;4972704;28;20735;-32
2022/05/19 02:02:06;;;;;;;6.47;3.50;;;13.60;99.90;;;;;;4967499;28;20039;-31
2022/05/19 02:04:56;;;;;;;5.80;3.80;;;13.50;99.90;;;;;;4971853;28;20027;-31
2022/05/19 02:07:22;;;;;;;3.42;3.05;;;13.60;99.90;;;;;;4973170;28;20034;-32
2022/05/19 02:09:57;;;;;;;3.67;3.15;;;13.60;99.90;;;;;;4969363;28;20046;-32
2022/05/19 02:12:24;;;;;;;6.45;3.45;;;13.50;99.90;;;;;;4985383;28;20035;-31
2022/05/19 02:14:58;;;;;;;5.60;3.45;;;13.50;99.90;;;;;;4970338;28;20039;-31
2022/05/19 02:17:26;;;;;;;5.50;3.40;;;13.40;99.90;;;;;;4973002;28;20097;-31
2022/05/19 02:19:56;;;;;;;4.93;3.28;;;13.40;99.90;;;;;;4971959;28;20762;-31
2022/05/19 02:22:27;;;;;;;8.82;3.67;;;13.40;99.90;;;;;;4969210;28;20054;-32
2022/05/19 02:25:07;;;;;;;5.88;4.03;;;13.20;99.90;;;;;;4969756;28;20053;-32
2022/05/19 02:27:42;;;;;;;6.10;3.10;;;13.10;99.90;;;;;;4974761;28;20026;-32
2022/05/19 02:30:11;;;;;;;5.25;3.70;;;13.00;99.90;;;;;;4972587;28;20043;-31
2022/05/19 02:32:37;;;;;;;4.82;3.70;;;13.10;99.90;;;;;;4970658;28;20521;-32
2022/05/19 02:35:04;;;;;;;4.07;3.70;;;13.10;99.90;;;;;;4982312;28;20030;-32
2022/05/19 02:37:30;;;;;;;5.90;3.60;;;12.90;99.90;;;;;;4973638;28;20030;-32
2022/05/19 02:39:57;;;;;;;5.50;3.92;;;12.80;99.90;;;;;;4971798;28;22157;-32
2022/05/19 02:42:22;;;;;;;7.38;3.75;;;12.80;99.90;;;;;;4970050;28;20038;-32
2022/05/19 02:44:48;;;;;;;5.80;3.90;;;12.70;99.90;;;;;;4971118;28;20027;-32
2022/05/19 02:47:13;;;;;;;3.97;3.58;;;12.70;99.90;;;;;;4977939;28;20388;-32
2022/05/19 02:49:39;;;;;;;5.70;3.80;;;12.60;99.90;;;;;;4970571;28;20026;-32
2022/05/19 02:52:05;;;;;;;5.53;3.63;;;12.70;99.90;;;;;;4971496;28;20038;-32
2022/05/19 02:54:31;;;;;;;6.88;4.05;;;12.80;99.90;;;;;;4970133;28;20089;-33
2022/05/19 02:56:56;;;;;;;4.38;3.97;;;12.80;99.90;;;;;;4970625;28;20027;-32
2022/05/19 02:59:22;;;;;;;6.30;3.95;;;12.80;99.90;;;;;;4975197;28;20098;-33
2022/05/19 03:01:48;;;;;;;4.20;3.80;;;12.70;99.90;;;;;;4970916;28;20700;-32
2022/05/19 03:04:13;;;;;;;4.03;3.65;;;12.70;99.90;;;;;;4969349;28;20054;-32
2022/05/19 03:06:39;;;;;;;4.35;3.70;;;12.70;99.90;;;;;;4971290;28;20031;-32
2022/05/19 03:09:05;;;;;;;7.75;3.97;;;12.60;99.90;;;;;;4952767;28;20152;-32
2022/05/19 03:11:31;;;;;;;4.30;3.90;;;12.70;99.90;;;;;;4970058;28;20431;-31
2022/05/19 03:13:56;;;;;;;4.38;3.90;;;12.70;99.90;;;;;;4967405;28;20463;-31
2022/05/19 03:16:22;;;;;;;3.50;3.20;;;12.80;99.90;;;;;;4968650;28;20035;-32
2022/05/19 03:18:48;;;;;;;6.13;3.95;;;12.80;99.90;;;;;;4954399;28;20113;-31
2022/05/19 03:21:13;;;;;;;5.05;3.63;;;12.90;99.90;;;;;;4971035;28;20217;-33
2022/05/19 03:23:39;;;;;;;5.15;4.18;;;12.70;99.90;;;;;;4968348;28;20468;-32
2022/05/19 03:26:05;;;;;;;7.90;4.07;;;12.60;99.90;;;;;;4969023;28;20051;-32
2022/05/19 03:28:31;;;;;;;4.47;3.67;;;12.60;99.90;;;;;;4970020;28;20030;-31
2022/05/19 03:30:56;;;;;;;3.90;3.50;;;12.70;99.90;;;;;;4969254;28;20058;-32
2022/05/19 03:33:22;;;;;;;7.15;3.97;;;12.70;99.90;;;;;;4971366;28;20084;-31
2022/05/19 03:36:02;;;;;;;6.40;3.90;;;12.70;99.90;;;;;;4970655;28;20019;-31
2022/05/19 03:38:28;;;;;;;8.13;4.43;;;12.50;99.90;;;;;;4973008;28;20037;-31
2022/05/19 03:40:54;;;;;;;5.80;4.45;;;12.50;99.90;;;;;;4970481;28;20030;-32
2022/05/19 03:43:19;;;;;;;4.55;4.15;;;12.40;99.90;;;;;;4969406;28;20057;-31
2022/05/19 03:45:46;;;;;;;5.07;4.57;;;12.20;99.90;;;;;;4968969;28;20030;-32
2022/05/19 03:48:11;;;;;;;4.40;4.00;;;12.30;99.90;;;;;;4971377;28;20037;-32
2022/05/19 03:50:38;;;;;;;4.75;3.97;;;12.20;99.90;;;;;;4968541;28;20031;-31
2022/05/19 03:53:04;;;;;;;5.38;4.18;;;12.30;99.90;;;;;;4968636;28;20069;-32
2022/05/19 03:55:30;;;;;;;4.32;3.60;;;12.50;99.90;;;;;;4967769;28;20161;-32
2022/05/19 03:57:56;;;;;;;4.70;3.67;;;12.20;99.90;;;;;;4969652;28;20031;-32
2022/05/19 04:00:22;;;;;;;5.55;3.97;;;12.00;99.90;;;;;;4972085;28;20063;-31
2022/05/19 04:02:47;;;;;;;5.40;3.90;;;11.90;99.90;;;;;;4975059;28;20034;-32
2022/05/19 04:05:14;;;;;;;3.80;3.40;;;12.10;99.90;;;;;;4977961;28;20394;-32
2022/05/19 04:07:41;;;;;;;4.63;4.18;;;12.20;99.90;;;;;;4976938;28;20022;-32
2022/05/19 04:10:08;;;;;;;8.38;3.63;;;12.40;99.90;;;;;;4968740;28;20030;-32
2022/05/19 04:12:34;;;;;;;5.85;4.20;;;12.50;99.90;;;;;;4969158;28;20038;-32
2022/05/19 04:15:00;;;;;;;5.25;4.00;;;12.60;99.90;;;;;;4968741;28;20049;-32
2022/05/19 04:17:26;;;;;;;3.78;3.35;;;12.30;99.90;;;;;;4971704;28;20404;-32
2022/05/19 04:19:51;;;;;;;6.88;3.55;;;12.10;99.90;;;;;;4968144;28;20038;-32
2022/05/19 04:22:17;;;;;;;4.30;3.90;;;12.10;99.90;;;;;;4970214;28;20035;-32
2022/05/19 04:24:43;;;;;;;6.20;4.43;;;12.30;99.90;;;;;;4977439;28;20415;-31
2022/05/19 04:27:11;;;;;;;6.65;3.88;;;12.40;99.90;;;;;;4975341;28;20047;-32
2022/05/19 04:29:37;;;;;;;4.68;4.03;;;12.50;99.90;;;;;;4969742;28;20081;-32
2022/05/19 04:32:03;;;;;;;4.50;3.60;;;12.50;99.90;;;;;;4967004;28;20364;-32
2022/05/19 04:34:29;;;;;;;4.80;3.80;;;12.50;99.90;;;;;;4971300;28;20026;-32
2022/05/19 04:36:54;;;;;;;6.07;3.97;;;12.50;99.90;;;;;;4967544;28;20038;-32
2022/05/19 04:39:21;;;;;;;4.25;3.85;;;12.40;99.90;;;;;;4969407;28;20038;-32
2022/05/19 04:41:46;;;;;;;5.70;3.70;;;12.30;99.90;;;;;;4967665;28;20030;-31
2022/05/19 04:44:12;;;;;;;5.30;3.97;;;12.50;99.90;;;;;;4970321;28;20440;-31
2022/05/19 04:46:37;;;;;;;4.45;3.47;;;12.70;99.90;;;;;;4974767;28;20022;-31
2022/05/19 04:49:03;;;;;;;3.75;3.45;;;12.90;99.90;;;;;;4974943;28;20037;-32
2022/05/19 04:51:29;;;;;;;4.32;3.92;;;13.00;99.90;;;;;;4971419;28;20054;-31
2022/05/19 04:53:54;;;;;;;3.88;3.53;;;13.00;99.90;;;;;;4972825;28;20030;-31
2022/05/19 04:56:20;;;;;;;4.05;3.42;;;13.10;99.90;;;;;;4970273;28;20042;-31
2022/05/19 04:58:46;;;;;;;4.68;3.92;;;13.10;99.90;;;;;;4976005;28;20039;-31
2022/05/19 05:01:11;;;;;;;4.05;3.65;;;13.20;99.90;;;;;;4971209;28;20121;-32
2022/05/19 05:03:37;;;;;;;4.72;3.75;;;13.40;99.90;;;;;;4956149;28;20022;-31
2022/05/19 05:06:03;;;;;;;5.38;3.78;;;13.50;99.90;;;;;;4971568;28;20027;-32
2022/05/19 05:08:29;;;;;;;4.35;3.80;;;13.70;99.90;;;;;;4975763;28;20110;-31
2022/05/19 05:10:54;;;;;;;7.00;4.05;;;13.90;99.90;;;;;;4978649;28;20109;-32
2022/05/19 05:13:20;;;;;;;3.97;3.55;;;14.00;99.90;;;;;;4976947;28;20026;-32
2022/05/19 05:15:45;;;;;;;4.00;3.60;;;14.10;99.90;;;;;;4978454;28;20034;-31
2022/05/19 05:18:11;;;;;;;5.32;3.70;;;14.20;99.90;;;;;;4976686;28;20038;-32
2022/05/19 05:20:40;;;;;;;3.30;3.00;;;14.30;99.90;;;;;;4967226;28;21522;-32
2022/05/19 05:23:06;;;;;;;5.90;3.45;;;14.50;99.90;;;;;;4972518;28;20039;-32
2022/05/19 05:25:31;;;;;;;4.38;3.25;;;14.70;99.90;;;;;;4973698;28;20049;-32
2022/05/19 05:27:58;;;;;;;3.25;2.95;;;14.80;98.50;;;;;;4971530;28;20034;-32
2022/05/19 05:30:25;;;;;;;4.22;3.65;;;14.80;99.90;;;;;;4979302;28;20026;-31
2022/05/19 05:32:51;;;;;;;4.15;3.50;;;14.80;99.90;;;;;;4985651;28;20038;-32
2022/05/19 05:35:17;;;;;;;3.20;2.88;;;15.00;99.90;;;;;;4984564;28;20030;-32
2022/05/19 05:37:43;;;;;;;5.85;3.70;;;15.10;99.40;;;;;;4980184;28;20039;-31
2022/05/19 05:40:13;;;;;;;4.10;3.65;;;15.20;97.70;;;;;;4959693;28;20550;-31
2022/05/19 05:42:39;;;;;;;7.75;3.90;;;15.20;97.30;;;;;;4976929;28;20572;-31
2022/05/19 05:45:07;;;;;;;4.60;3.22;;;15.30;97.50;;;;;;4986885;28;20045;-31
2022/05/19 05:47:33;;;;;;;3.90;3.45;;;15.20;96.70;;;;;;4988559;28;20015;-32
2022/05/19 05:49:58;;;;;;;4.15;3.17;;;15.50;97.70;;;;;;4982650;28;20109;-32
2022/05/19 05:52:25;;;;;;;4.47;3.28;;;15.60;95.90;;;;;;4984331;28;20144;-32
2022/05/19 05:54:51;;;;;;;4.68;3.78;;;15.70;94.30;;;;;;4980249;28;20081;-31
2022/05/19 05:57:17;;;;;;;4.88;3.92;;;15.60;93.80;;;;;;4988527;28;20037;-32
2022/05/19 05:59:42;;;;;;;4.28;3.50;;;15.50;94.50;;;;;;4981531;28;20496;-32
2022/05/19 06:02:08;;;;;;;4.30;3.53;;;15.40;96.40;;;;;;4988566;28;20118;-31
2022/05/19 06:04:34;;;;;;;4.72;3.60;;;15.40;97.20;;;;;;4982965;28;20037;-32
2022/05/19 06:07:00;;;;;;;6.35;3.65;;;15.40;95.90;;;;;;4979440;28;20395;-32
2022/05/19 06:09:25;;;;;;;3.85;3.53;;;15.50;98.00;;;;;;4984296;28;20034;-32
2022/05/19 06:11:51;;;;;;;5.90;3.40;;;15.50;97.50;;;;;;4981999;28;20081;-32
2022/05/19 06:14:17;;;;;;;3.35;2.97;;;15.70;97.20;;;;;;4981929;28;20032;-32
2022/05/19 06:16:44;;;;;;;3.65;3.33;;;15.70;95.50;;;;;;4979070;28;20030;-32
2022/05/19 06:19:10;;;;;;;4.18;3.75;;;15.90;96.00;;;;;;4987655;28;20057;-32
2022/05/19 06:21:39;;;;;;;4.45;3.80;;;16.00;94.80;;;;;;4987464;28;20521;-32
2022/05/19 06:24:08;;;;;;;3.70;3.40;;;16.20;95.90;;;;;;4980135;28;20034;-32
2022/05/19 06:26:36;;;;;;;5.53;3.65;;;16.40;93.40;;;;;;4981207;28;20050;-32
2022/05/19 06:29:01;;;;;;;4.22;3.58;;;16.40;94.80;;;;;;4984909;28;20023;-31
2022/05/19 06:31:27;;;;;;;4.72;3.13;;;16.50;95.50;;;;;;4978750;28;20051;-32
2022/05/19 06:33:53;;;;;;;4.30;3.30;;;16.50;91.20;;;;;;4982360;28;20049;-31
2022/05/19 06:36:18;;;;;;;5.47;3.97;;;16.60;91.60;;;;;;4990229;28;20372;-33
2022/05/19 06:38:44;;;;;;;5.25;3.67;;;16.80;92.20;;;;;;4986582;28;20184;-34
2022/05/19 06:43:54;;;;;;;5.72;4.38;;;17.00;90.90;;;;;;4986409;28;20037;-32
2022/05/19 06:46:19;;;;;;;3.80;3.03;;;17.10;91.00;;;;;;4984804;28;20250;-33
2022/05/19 06:48:45;;;;;;;5.05;2.92;;;17.10;87.60;;;;;;4981296;28;20777;-32
2022/05/19 06:51:10;;;;;;;3.42;3.00;;;17.40;92.30;;;;;;4985183;28;20026;-32
2022/05/19 06:53:37;;;;;;;4.65;2.92;;;17.60;90.10;;;;;;4985425;28;20490;-32
2022/05/19 06:56:02;;;;;;;5.10;3.78;;;17.70;91.30;;;;;;4978351;28;20377;-32
2022/05/19 06:58:28;;;;;;;4.10;3.78;;;17.90;90.70;;;;;;4984852;28;20065;-32
2022/05/19 07:00:54;;;;;;;4.63;3.47;;;17.90;91.40;;;;;;4976683;28;20519;-33
2022/05/19 07:03:19;;;;;;;7.80;3.33;;;17.90;91.80;;;;;;4984474;28;20058;-33
2022/05/19 07:05:45;;;;;;;3.40;3.10;;;18.00;91.20;;;;;;4985431;28;20034;-33
2022/05/19 07:08:13;;;;;;;3.28;2.88;;;18.10;88.70;;;;;;4977894;28;20102;-32
2022/05/19 07:10:38;;;;;;;3.67;3.30;;;18.30;88.70;;;;;;4977961;28;20030;-31
2022/05/19 07:13:04;;;;;;;4.07;2.97;;;18.70;91.10;;;;;;4977280;28;20031;-32
2022/05/19 07:15:29;;;;;;;4.18;3.03;;;19.00;89.80;;;;;;4979308;28;20027;-32
2022/05/19 07:17:56;;;;;;;5.13;3.30;;;19.40;88.30;;;;;;4970412;28;20035;-32
2022/05/19 07:23:08;;;;;;;5.82;3.65;;;19.20;90.00;;;;;;4986052;28;20125;-31
2022/05/19 07:25:34;;;;;;;5.10;3.10;;;19.10;85.40;;;;;;4970943;28;20503;-31
2022/05/19 07:28:00;;;;;;;5.95;3.13;;;19.10;89.30;;;;;;4974240;28;20054;-31
2022/05/19 07:30:25;;;;;;;4.13;3.08;;;19.40;90.80;;;;;;4969298;28;20034;-31
2022/05/19 07:32:53;;;;;;;4.22;3.00;;;19.60;91.00;;;;;;4971803;28;20917;-32
2022/05/19 07:35:19;;;;;;;3.97;3.58;;;19.70;87.00;;;;;;4975566;28;20035;-32
2022/05/19 07:37:45;;;;;;;5.18;3.50;;;19.90;90.60;;;;;;4971727;28;20073;-32
2022/05/19 07:40:11;;;;;;;3.60;3.28;;;20.20;84.80;;;;;;4972695;28;20038;-32
2022/05/19 07:42:38;;;;;;;4.32;3.42;;;20.50;82.10;;;;;;4974794;28;20080;-32
2022/05/19 07:45:05;;;;;;;5.80;3.60;;;20.70;87.40;;;;;;4977527;28;20459;-32
2022/05/19 07:47:31;;;;;;;4.55;3.00;;;20.70;80.50;;;;;;4973403;28;20562;-32
2022/05/19 07:49:57;;;;;;;3.92;3.17;;;21.00;78.20;;;;;;4975183;28;20468;-32
2022/05/19 07:52:23;;;;;;;4.13;3.20;;;21.20;79.50;;;;;;4958779;28;20109;-33
2022/05/19 07:54:49;;;;;;;3.35;3.05;;;21.40;80.90;;;;;;4972834;28;20027;-32
2022/05/19 07:57:15;;;;;;;4.05;3.10;;;21.60;78.70;;;;;;4965926;28;20041;-32
2022/05/19 07:59:41;;;;;;;3.25;2.95;;;21.70;71.80;;;;;;4969891;28;20447;-32
2022/05/19 08:02:07;;;;;;;5.55;3.22;;;21.80;74.90;;;;;;4967705;28;20128;-32
2022/05/19 08:04:33;;;;;;;3.40;3.03;;;21.90;70.30;;;;;;4974196;28;20037;-32
2022/05/19 08:06:59;;;;;;;3.63;3.30;;;21.20;66.20;;;;;;4972407;28;20034;-33
2022/05/19 08:17:55;;;;;;;3.78;3.20;;;21.30;73.90;;;;;;4971870;28;20091;-32
2022/05/19 08:20:21;;;;;;;3.90;3.42;;;21.40;75.10;;;;;;4973051;28;20050;-32
2022/05/19 08:22:47;;;;;;;6.10;4.07;;;21.50;75.50;;;;;;4972041;28;20035;-32
2022/05/19 08:25:13;;;;;;;4.25;3.80;;;21.80;75.60;;;;;;4972950;28;20065;-32
2022/05/19 08:27:39;;;;;;;4.88;3.90;;;21.60;74.30;;;;;;4974833;28;20101;-33
2022/05/19 08:30:06;;;;;;;5.18;4.30;;;21.70;75.00;;;;;;4976704;28;20054;-32
2022/05/19 08:32:32;;;;;;;6.32;4.10;;;22.10;82.90;;;;;;4974641;28;20043;-32
2022/05/19 08:34:57;;;;;;;5.18;4.18;;;22.20;79.00;;;;;;4979112;28;20039;-32
2022/05/19 08:37:23;;;;;;;6.78;4.60;;;22.40;74.10;;;;;;4958150;28;20053;-32
2022/05/19 08:39:49;;;;;;;7.32;4.30;;;22.40;66.60;;;;;;4976436;28;20030;-32
2022/05/19 08:42:17;;;;;;;6.55;4.50;;;22.60;69.60;;;;;;4975323;28;20038;-32
2022/05/19 08:44:54;;;;;;;;;;;22.80;73.00;;;;;;4978501;28;20153;-33
2022/05/19 08:47:25;;;;;;;5.85;4.57;;;22.80;66.00;;;;;;4975372;28;19960;-33
2022/05/19 08:50:02;;;;;;;8.68;4.70;;;22.70;68.00;;;;;;4975688;28;20062;-33
2022/05/19 08:52:43;;;;;;;4.20;3.72;;;22.50;71.10;;;;;;4973369;28;20035;-32
2022/05/19 08:55:13;;;;;;;5.32;4.60;;;22.90;74.10;;;;;;4975796;28;20034;-32
2022/05/19 08:57:56;;;;;;;4.93;4.28;;;23.20;72.00;;;;;;4971734;28;20412;-32
2022/05/19 09:00:50;;;;;;;5.90;4.47;;;22.80;70.30;;;;;;4975874;28;20035;-32
2022/05/19 09:03:27;;;;;;;4.60;4.20;;;22.60;65.90;;;;;;4972769;28;20061;-32
2022/05/19 09:06:17;;;;;;;5.85;3.78;;;22.80;74.60;;;;;;4972645;28;20037;-33
2022/05/19 09:09:01;;;;;;;5.93;3.80;;;23.00;71.30;;;;;;4974425;28;20038;-32
2022/05/19 09:11:40;;;;;;;5.43;4.10;;;23.70;72.30;;;;;;4968059;28;20034;-32
2022/05/19 09:14:18;;;;;;;5.57;3.97;;;23.40;66.00;;;;;;4972653;28;20060;-32
2022/05/19 09:16:43;;;;;;;5.10;4.32;;;23.30;66.70;;;;;;4967721;28;20023;-32
2022/05/19 09:19:11;;;;;;;4.30;3.90;;;23.60;68.00;;;;;;4972335;28;21319;-33
2022/05/19 09:21:38;;;;;;;;;;;23.90;67.10;;;;;;4971933;28;20479;-32
2022/05/19 09:24:05;;;;;;;5.43;3.63;;;24.10;65.00;;;;;;4974621;28;19925;-32
2022/05/19 09:26:43;;;;;;;6.20;4.30;;;24.10;70.90;;;;;;4974045;28;20105;-31
2022/05/19 09:29:23;;;;;;;;;;;24.50;67.30;;;;;;4968042;28;20086;-32
2022/05/19 09:31:52;;;;;;;4.22;3.83;;;24.50;64.70;;;;;;4983395;28;19918;-32
2022/05/19 09:34:22;;;;;;;4.70;3.38;;;24.60;63.60;;;;;;4973318;28;20065;-32
2022/05/19 09:37:10;;;;;;;4.57;4.00;;;24.40;60.00;;;;;;4973465;28;20122;-32
2022/05/19 09:39:49;;;;;;;4.35;3.80;;;24.30;63.70;;;;;;4982297;28;20502;-32
2022/05/19 09:42:20;;;;;;;4.55;3.78;;;24.90;63.00;;;;;;4977252;28;20042;-32
2022/05/19 09:44:56;;;;;;;5.88;3.55;;;25.10;66.80;;;;;;4980292;28;20031;-32
2022/05/19 09:47:31;;;;;;;5.95;4.00;;;25.60;66.20;;;;;;4976260;28;20034;-31
2022/05/19 09:50:08;;;;;;;4.32;3.75;;;25.40;60.60;;;;;;4976583;28;20029;-32
2022/05/19 09:52:34;;;;;;;3.78;3.47;;;25.60;59.90;;;;;;4978326;28;20034;-32
2022/05/19 09:55:06;;;;;;;4.68;3.22;;;25.90;64.20;;;;;;4980872;28;20106;-32
2022/05/19 09:57:46;;;;;;;4.68;3.85;;;26.30;64.60;;;;;;4979754;28;20037;-32
2022/05/19 10:00:26;;;;;;;5.78;3.90;;;26.20;61.90;;;;;;4980074;28;20019;-32
2022/05/19 10:02:55;;;;;;;4.20;3.83;;;26.10;60.20;;;;;;4971670;28;20093;-32
2022/05/19 10:05:32;;;;;;;5.50;3.92;;;26.20;60.80;;;;;;4978921;28;20483;-33
2022/05/19 10:08:05;;;;;;;5.00;3.53;;;26.40;62.60;;;;;;4978368;28;20045;-32
2022/05/19 10:10:35;;;;;;;3.95;3.60;;;26.80;66.60;;;;;;4972408;28;20114;-32
2022/05/19 10:13:07;;;;;;;5.05;4.55;;;27.00;58.10;;;;;;4973378;28;20023;-32
2022/05/19 10:15:54;;;;;;;4.82;3.70;;;26.60;62.40;;;;;;4973632;28;20042;-32
2022/05/19 10:18:38;;;;;;;3.92;3.53;;;26.40;59.00;;;;;;4972806;28;20026;-32
2022/05/19 10:21:06;;;;;;;4.57;3.53;;;26.20;60.30;;;;;;4972324;28;20038;-32
2022/05/19 10:23:58;;;;;;;6.00;3.90;;;26.30;64.40;;;;;;4972074;28;20031;-32
2022/05/19 10:31:02;;;;;;;4.30;3.78;;;26.70;62.50;;;;;;4972733;28;20500;-32
2022/05/19 10:32:41;;;;;;;4.53;3.70;;;26.50;70.80;;;;;;4974702;28;20050;-32
2022/05/19 10:35:16;;;;;;;4.30;3.90;;;26.30;59.20;;;;;;4972019;28;20037;-32
2022/05/19 10:38:02;;;;;;;7.35;3.80;;;26.50;60.50;;;;;;4974498;28;20121;-32
2022/05/19 10:40:54;;;;;;;5.90;3.85;;;26.60;61.10;;;;;;4969200;28;20474;-32
2022/05/19 10:43:47;;;;;;;4.78;3.67;;;26.90;62.90;;;;;;4970299;28;20039;-32
2022/05/19 10:46:19;;;;;;;5.55;3.35;;;27.10;64.70;;;;;;4967895;28;20023;-32
2022/05/19 10:48:57;;;;;;;4.50;3.60;;;27.00;59.50;;;;;;4968661;28;20158;-32
2022/05/19 10:51:34;;;;;;;;;;;26.90;57.10;;;;;;4972960;28;20041;-32
2022/05/19 10:54:17;;;;;;;4.88;3.25;;;27.20;59.40;;;;;;4968923;28;20851;-32
2022/05/19 10:57:01;;;;;;;5.05;3.33;;;27.00;61.60;;;;;;4968576;28;20045;-32
2022/05/19 11:00:05;;;;;;;3.45;3.17;;;26.70;58.50;;;;;;4975554;28;20038;-32
2022/05/19 11:03:02;;;;;;;6.45;3.35;;;26.60;60.30;;;;;;4965268;28;20043;-32
2022/05/19 11:06:15;;;;;;;5.28;3.67;;;26.90;63.10;;;;;;4970039;28;20053;-32
2022/05/19 11:09:05;;;;;;;6.70;3.33;;;26.60;58.50;;;;;;4951972;28;20122;-32
2022/05/19 11:11:50;;;;;;;4.93;2.90;;;26.60;63.00;;;;;;4971756;28;20057;-33
2022/05/19 11:15:05;;;;;;;5.60;3.33;;;27.10;58.00;;;;;;4972647;28;20034;-33
2022/05/19 11:18:08;;;;;;;4.63;3.05;;;26.90;60.90;;;;;;4947787;28;20038;-32
2022/05/19 11:20:47;;;;;;;6.55;3.50;;;27.20;62.50;;;;;;4968458;28;20041;-32
2022/05/19 11:23:20;;;;;;;7.28;3.28;;;27.40;62.70;;;;;;4977888;28;20042;-33
2022/05/19 11:28:46;;;;;;;3.85;3.45;;;27.20;59.00;;;;;;4969833;28;20045;-30
2022/05/19 11:31:18;;;;;;;2.90;2.60;;;27.00;54.80;;;;;;4972902;28;20396;-32
2022/05/19 11:33:49;;;;;;;2.67;2.47;;;27.30;55.00;;;;;;4972423;28;20033;-30
2022/05/19 11:36:27;;;;;;;3.83;3.53;;;27.30;55.80;;;;;;4968908;28;20030;-32
2022/05/19 11:39:14;;;;;;;5.40;2.97;;;27.50;55.70;;;;;;4974612;28;20061;-31
2022/05/19 11:41:40;;;;;;;4.68;2.83;;;27.40;61.70;;;;;;4954057;28;20037;-32
2022/05/19 11:44:18;;;;;;;4.03;2.67;;;27.30;50.70;;;;;;4967157;28;20506;-31
2022/05/19 11:46:57;;;;;;;3.95;2.78;;;27.20;54.80;;;;;;4949110;28;20034;-31
2022/05/19 11:55:19;;;;;;;6.05;3.05;;;27.60;55.30;;;;;;4969192;28;19936;-32
2022/05/19 11:58:24;;;;;;;4.53;3.13;;;27.60;56.10;;;;;;4973217;28;20046;-32
2022/05/19 12:00:52;;;;;;;3.28;2.72;;;27.60;53.70;;;;;;4927632;28;20436;-32
2022/05/19 12:03:42;;;;;;;3.03;2.75;;;27.60;60.00;;;;;;4971006;28;20030;-32
2022/05/19 12:06:12;;;;;;;4.25;2.90;;;27.60;56.30;;;;;;4970145;28;20030;-32
2022/05/19 12:08:57;;;;;;;4.68;2.97;;;27.60;58.60;;;;;;4972049;28;20022;-33
2022/05/19 12:11:44;;;;;;;4.28;2.90;;;27.70;53.80;;;;;;4967529;28;20030;-31
2022/05/19 12:14:25;;;;;;;4.20;2.97;;;27.70;52.80;;;;;;4969877;28;20034;-33
2022/05/19 12:16:59;;;;;;;4.00;3.08;;;27.60;51.50;;;;;;4968511;28;20037;-33
2022/05/19 12:19:43;;;;;;;3.63;2.92;;;27.50;52.70;;;;;;4972763;28;22088;-32
2022/05/19 12:22:24;;;;;;;4.80;3.28;;;27.40;53.00;;;;;;4970936;28;20038;-31
2022/05/19 12:24:51;;;;;;;3.47;3.15;;;27.60;52.70;;;;;;4970648;28;20545;-32
2022/05/19 12:27:21;;;;;;;4.32;3.15;;;27.60;53.90;;;;;;4970212;28;20086;-32
2022/05/19 12:33:15;;;;;;;4.75;3.20;;;27.40;49.40;;;;;;4977100;28;20522;-31
2022/05/19 12:35:52;;;;;;;3.40;2.70;;;27.40;52.00;;;;;;4967020;28;20030;-31
2022/05/19 12:38:34;;;;;;;5.40;2.70;;;27.50;51.20;;;;;;4971331;28;20530;-32
2022/05/19 12:41:08;;;;;;;2.70;2.50;;;27.70;61.10;;;;;;4965533;28;20035;-31
2022/05/19 12:43:38;;;;;;;3.80;2.50;;;27.70;49.90;;;;;;4966424;28;20038;-31
2022/05/19 12:46:08;;;;;;;4.15;2.65;;;27.60;48.00;;;;;;4967683;28;20066;-32
2022/05/19 12:48:34;;;;;;;5.95;2.63;;;27.60;46.70;;;;;;4971961;28;20034;-33
2022/05/19 12:51:06;;;;;;;4.93;2.45;;;27.70;53.30;;;;;;4967450;28;20045;-31
2022/05/19 12:53:44;;;;;;;3.00;2.80;;;27.80;50.60;;;;;;4968125;28;20066;-31
2022/05/19 12:56:44;;;;;;;4.03;2.72;;;27.90;53.10;;;;;;4966959;28;20432;-31
2022/05/19 12:59:50;;;;;;;3.38;2.70;;;27.90;52.60;;;;;;4964497;28;20035;-32
2022/05/19 13:02:32;;;;;;;3.60;2.85;;;28.00;55.20;;;;;;4939352;28;20043;-32
2022/05/19 13:05:04;;;;;;;3.35;2.92;;;28.00;55.60;;;;;;4970247;28;20533;-31
2022/05/19 13:07:46;;;;;;;3.63;2.75;;;28.00;52.60;;;;;;4968998;28;20146;-31
2022/05/19 13:10:25;;;;;;;4.95;2.70;;;27.80;49.30;;;;;;4972120;28;20045;-32
2022/05/19 13:12:53;;;;;;;4.55;2.75;;;27.70;49.50;;;;;;4963034;28;20053;-33
2022/05/19 13:15:26;;;;;;;3.08;2.42;;;27.70;48.50;;;;;;4974175;28;20057;-31
2022/05/19 13:17:53;;;;;;;4.75;2.80;;;27.70;48.60;;;;;;4957171;28;20480;-32
2022/05/19 13:20:26;;;;;;;3.88;3.35;;;27.80;50.40;;;;;;4966117;28;20400;-31
2022/05/19 13:23:00;;;;;;;4.85;2.70;;;28.00;53.90;;;;;;4976741;28;20085;-31
2022/05/19 13:25:27;;;;;;;3.03;2.75;;;28.00;50.70;;;;;;4975896;28;20830;-31
2022/05/19 13:30:54;;;;;;;3.20;2.60;;;28.10;48.30;;;;;;4971160;28;20045;-31
2022/05/19 13:33:36;;;;;;;3.20;2.90;;;28.10;49.30;;;;;;4976697;28;20034;-31
2022/05/19 13:36:08;;;;;;;4.00;2.90;;;28.20;54.50;;;;;;4979504;28;20423;-31
2022/05/19 13:38:34;;;;;;;3.83;2.60;;;28.10;52.60;;;;;;4962481;28;20451;-31
2022/05/19 13:41:01;;;;;;;3.97;3.00;;;28.10;51.10;;;;;;4968867;28;20564;-32
2022/05/19 13:43:44;;;;;;;4.88;2.53;;;28.10;50.60;;;;;;4969009;28;20428;-32